Doylestown, Pennsylvania
Current Conditions -  °F | °C
As of 2:54 AM on Thursday 18 Dec 2014 (Local Time) from KDYL Reporting Station
Overcast Overcast  
Wind Chill: 25°   Ceiling: 3800
Heat Index: 34°   Visibility: 10mi
Dew Point: 22°   Wind: 12mph
Humidity: 61%   Direction: 280°W
Pressure: 29.96"   Gusts: NA
Location:  40.31°N, 75.13°W
Report Text: KDYL 180754Z AUTO 28010KT 10SM BKN038 OVC070 01/M06 A2996 RMK AO2 SLP152 T00111056
Loading
Personal Weather Stations






























Interactive Weather Map New forecast layout! Learn more

10-Day Weather Forecast

Advertisements
Track Severe Weather on mobile